Time;durP1;ratioP1;P1;durP2;ratioP2;P2;SDS_P1;SDS_P2;PMS_P1;PMS_P2;Temp;Humidity;BMP_temperature;BMP_pressure;BME280_temperature;BME280_humidity;BME280_pressure;Samples;Min_cycle;Max_cycle;Signal;HPM_P1;HPM_P2
2022/05/31 00:01:42;;;;;;;10.68;6.45;;;7.60;99.90;;;;;;5075868;28;20020;-69
2022/05/31 00:04:07;;;;;;;9.98;6.45;;;7.60;99.90;;;;;;5075721;28;20044;-68
2022/05/31 00:06:33;;;;;;;6.63;5.78;;;7.60;99.90;;;;;;5075863;28;20023;-68
2022/05/31 00:08:59;;;;;;;8.95;5.55;;;7.60;99.90;;;;;;5074579;28;20021;-68
2022/05/31 00:11:25;;;;;;;13.23;6.75;;;7.60;99.90;;;;;;5075801;28;20100;-69
2022/05/31 00:13:50;;;;;;;10.50;6.85;;;7.60;99.90;;;;;;5074568;28;20115;-69
2022/05/31 00:16:16;;;;;;;13.18;7.20;;;7.60;99.90;;;;;;5075795;28;20117;-69
2022/05/31 00:18:42;;;;;;;13.50;5.72;;;7.60;99.90;;;;;;5075567;28;20027;-69
2022/05/31 00:21:07;;;;;;;12.65;6.70;;;7.60;99.90;;;;;;5075513;28;20115;-69
2022/05/31 00:23:34;;;;;;;12.73;7.13;;;7.60;99.90;;;;;;5075477;28;20367;-69
2022/05/31 00:25:59;;;;;;;10.65;6.18;;;7.50;99.90;;;;;;5075509;28;20531;-69
2022/05/31 00:28:25;;;;;;;11.35;6.72;;;7.60;99.90;;;;;;5074221;28;20107;-69
2022/05/31 00:30:51;;;;;;;7.88;6.07;;;7.50;99.90;;;;;;5075416;28;20397;-69
2022/05/31 00:33:17;;;;;;;12.70;7.28;;;7.50;99.90;;;;;;5075394;28;20493;-69
2022/05/31 00:35:46;;;;;;;14.52;6.97;;;7.50;99.90;;;;;;5075273;28;20028;-69
2022/05/31 00:38:12;;;;;;;15.48;7.88;;;7.50;99.90;;;;;;5075161;28;20085;-69
2022/05/31 00:40:40;;;;;;;13.80;8.15;;;7.40;99.90;;;;;;5075152;28;20487;-68
2022/05/31 00:43:10;;;;;;;10.13;7.80;;;7.40;99.90;;;;;;5073541;28;20033;-69
2022/05/31 00:45:58;;;;;;;12.40;8.10;;;7.40;99.90;;;;;;5073800;28;20509;-69
2022/05/31 00:48:32;;;;;;;12.90;7.60;;;7.30;99.90;;;;;;5074997;28;20087;-69
2022/05/31 00:51:03;;;;;;;15.15;8.07;;;7.30;99.90;;;;;;5074998;28;20386;-70
2022/05/31 00:53:40;;;;;;;11.05;7.72;;;7.30;99.90;;;;;;5074953;28;20012;-69
2022/05/31 00:56:12;;;;;;;11.20;7.32;;;7.30;99.90;;;;;;5073711;28;20025;-69
2022/05/31 00:58:43;;;;;;;11.43;7.80;;;7.30;99.90;;;;;;5073571;28;20032;-69
2022/05/31 01:01:14;;;;;;;14.43;8.20;;;7.20;99.90;;;;;;5074707;28;20028;-69
2022/05/31 01:03:42;;;;;;;12.82;7.47;;;7.20;99.90;;;;;;5073443;28;20016;-69
2022/05/31 01:06:10;;;;;;;13.73;7.93;;;7.20;99.90;;;;;;5074619;28;20028;-69
2022/05/31 01:08:36;;;;;;;11.50;7.90;;;7.20;99.90;;;;;;5073328;28;20023;-69
2022/05/31 01:11:03;;;;;;;10.45;8.30;;;7.20;99.90;;;;;;5074585;28;20471;-68
2022/05/31 01:13:29;;;;;;;10.10;6.95;;;7.20;99.90;;;;;;5073254;28;20056;-69
2022/05/31 01:16:04;;;;;;;13.07;8.10;;;7.20;99.90;;;;;;5074462;28;20067;-69
2022/05/31 01:18:30;;;;;;;17.15;9.15;;;7.20;99.90;;;;;;5074667;28;20501;-70
2022/05/31 01:20:56;;;;;;;14.60;9.50;;;7.20;99.90;;;;;;5074388;28;20025;-69
2022/05/31 01:23:23;;;;;;;15.02;9.40;;;7.30;99.90;;;;;;5073170;28;20035;-69
2022/05/31 01:26:18;;;;;;;12.20;8.75;;;7.30;99.90;;;;;;5072936;28;20115;-69
2022/05/31 01:28:59;;;;;;;10.38;7.50;;;7.30;99.90;;;;;;5074048;28;20036;-69
2022/05/31 01:31:30;;;;;;;10.50;7.55;;;7.30;99.90;;;;;;5074262;28;20048;-69
2022/05/31 01:36:49;;;;;;;12.90;8.57;;;7.30;99.90;;;;;;5111207;27;20434;-68
2022/05/31 01:39:23;;;;;;;13.40;8.43;;;7.30;99.90;;;;;;5111174;28;20482;-68
2022/05/31 01:41:57;;;;;;;14.90;9.00;;;7.30;99.90;;;;;;5109874;28;20023;-68
2022/05/31 01:44:26;;;;;;;12.57;7.28;;;7.40;99.90;;;;;;5110987;28;20023;-69
2022/05/31 01:46:54;;;;;;;14.95;8.88;;;7.30;99.90;;;;;;5109790;28;20028;-68
2022/05/31 01:49:22;;;;;;;14.10;8.90;;;7.40;99.90;;;;;;5111105;28;20042;-68
2022/05/31 01:51:49;;;;;;;13.98;8.50;;;7.30;99.90;;;;;;5109757;28;20462;-69
2022/05/31 01:54:17;;;;;;;13.20;8.55;;;7.30;99.90;;;;;;5110871;28;20538;-68
2022/05/31 01:56:43;;;;;;;16.52;8.50;;;7.20;99.90;;;;;;5109405;28;20034;-68
2022/05/31 01:59:11;;;;;;;10.57;7.60;;;7.20;99.90;;;;;;5110630;28;20084;-68
2022/05/31 02:01:38;;;;;;;11.25;7.53;;;7.10;99.90;;;;;;5110625;28;20031;-69
2022/05/31 02:04:05;;;;;;;15.88;8.45;;;7.00;99.90;;;;;;5109519;28;20485;-69
2022/05/31 02:06:35;;;;;;;13.57;8.18;;;7.00;99.90;;;;;;5110590;28;20023;-69
2022/05/31 02:09:03;;;;;;;13.30;8.30;;;6.90;99.90;;;;;;5110509;28;20582;-68
2022/05/31 02:11:29;;;;;;;12.45;7.72;;;6.80;99.90;;;;;;5110485;28;20142;-68
2022/05/31 02:13:54;;;;;;;17.80;9.38;;;6.80;99.90;;;;;;5110700;28;20574;-68
2022/05/31 02:16:20;;;;;;;11.52;8.23;;;6.80;99.90;;;;;;5110317;28;20059;-69
2022/05/31 02:19:40;;;;;;;15.80;9.93;;;6.70;99.90;;;;;;5110433;28;20024;-68
2022/05/31 02:21:38;;;;;;;17.25;10.38;;;6.80;99.90;;;;;;5109050;28;20390;-68
2022/05/31 02:24:09;;;;;;;19.13;11.10;;;6.80;99.90;;;;;;5109429;28;20467;-68
2022/05/31 02:26:35;;;;;;;18.92;11.40;;;6.90;99.90;;;;;;5110208;28;20024;-68
2022/05/31 02:29:02;;;;;;;14.52;11.32;;;7.00;99.90;;;;;;5108962;28;20031;-68
2022/05/31 02:31:29;;;;;;;18.48;10.68;;;7.00;99.90;;;;;;5110091;28;20057;-68
2022/05/31 02:33:55;;;;;;;17.65;10.40;;;7.10;99.90;;;;;;5108850;28;20020;-68
2022/05/31 02:36:20;;;;;;;16.67;10.55;;;7.10;99.90;;;;;;5108646;28;20050;-68
2022/05/31 02:38:46;;;;;;;18.50;10.65;;;7.10;99.90;;;;;;5110091;28;20091;-69
2022/05/31 02:41:12;;;;;;;16.48;9.98;;;7.00;99.90;;;;;;5109833;28;20381;-69
2022/05/31 02:43:37;;;;;;;15.88;10.50;;;7.00;99.90;;;;;;5108527;28;20020;-68
2022/05/31 02:46:03;;;;;;;19.48;10.90;;;7.00;99.90;;;;;;5108268;28;20020;-69
2022/05/31 02:48:30;;;;;;;15.55;10.13;;;7.00;99.90;;;;;;5094771;28;20032;-68
2022/05/31 02:50:55;;;;;;;16.02;9.50;;;7.00;99.90;;;;;;5096218;28;20024;-68
2022/05/31 02:53:21;;;;;;;17.38;9.73;;;6.90;99.90;;;;;;5096141;28;20398;-69
2022/05/31 02:55:47;;;;;;;14.02;9.93;;;6.80;99.90;;;;;;5096035;28;20020;-68
2022/05/31 02:58:13;;;;;;;14.60;9.70;;;6.80;99.90;;;;;;5094794;28;20478;-68
2022/05/31 03:00:38;;;;;;;14.32;10.32;;;6.70;99.90;;;;;;5094841;28;20111;-68
2022/05/31 03:03:04;;;;;;;20.67;11.30;;;6.60;99.90;;;;;;5094618;28;20494;-69
2022/05/31 03:05:29;;;;;;;15.60;10.05;;;6.60;99.90;;;;;;5095950;28;20028;-68
2022/05/31 03:07:55;;;;;;;24.73;11.45;;;6.60;99.90;;;;;;5095787;28;20031;-69
2022/05/31 03:10:21;;;;;;;17.17;11.13;;;6.60;99.90;;;;;;5095859;28;20093;-68
2022/05/31 03:12:50;;;;;;;20.58;11.18;;;6.60;99.90;;;;;;5094576;28;20027;-69
2022/05/31 03:15:19;;;;;;;19.20;11.20;;;6.50;99.90;;;;;;5095632;28;20034;-69
2022/05/31 03:17:52;;;;;;;16.20;11.23;;;6.50;99.90;;;;;;5095901;28;20594;-68
2022/05/31 03:20:24;;;;;;;19.90;11.07;;;6.50;99.90;;;;;;5095685;28;20024;-69
2022/05/31 03:22:59;;;;;;;19.17;11.57;;;6.50;99.90;;;;;;5094356;28;20020;-70
2022/05/31 03:25:27;;;;;;;18.45;11.10;;;6.50;99.90;;;;;;5095453;28;20035;-68
2022/05/31 03:27:57;;;;;;;19.52;12.18;;;6.50;99.90;;;;;;5095523;28;20396;-68
2022/05/31 03:30:22;;;;;;;19.25;11.18;;;6.60;99.90;;;;;;5095366;28;20028;-69
2022/05/31 03:32:49;;;;;;;16.80;10.75;;;6.60;99.90;;;;;;5077193;28;20695;-69
2022/05/31 03:35:15;;;;;;;15.43;10.20;;;6.60;99.90;;;;;;5093821;28;20040;-68
2022/05/31 03:37:40;;;;;;;16.45;11.05;;;6.70;99.90;;;;;;5095187;28;20046;-68
2022/05/31 03:40:07;;;;;;;20.83;11.80;;;6.80;99.90;;;;;;5077076;28;20476;-68
2022/05/31 03:42:33;;;;;;;12.98;10.15;;;6.80;99.90;;;;;;5093998;28;20065;-68
2022/05/31 03:44:58;;;;;;;16.35;10.52;;;6.90;99.90;;;;;;5095083;28;20314;-68
2022/05/31 03:47:24;;;;;;;15.93;10.63;;;7.00;99.90;;;;;;5094090;28;20020;-69
2022/05/31 03:49:49;;;;;;;13.63;10.00;;;7.10;99.90;;;;;;5094934;28;20119;-69
2022/05/31 03:52:15;;;;;;;17.88;10.63;;;7.20;99.90;;;;;;5094864;28;20038;-68
2022/05/31 03:54:41;;;;;;;16.90;10.02;;;7.30;99.90;;;;;;5093503;28;20389;-69
2022/05/31 03:57:12;;;;;;;19.10;10.60;;;7.40;99.90;;;;;;5094813;28;20046;-68
2022/05/31 03:59:38;;;;;;;13.93;8.48;;;7.40;99.90;;;;;;5093869;28;20407;-68
2022/05/31 04:02:04;;;;;;;14.18;9.10;;;7.50;99.90;;;;;;5094735;28;20017;-68
2022/05/31 04:04:30;;;;;;;15.02;9.55;;;7.60;99.90;;;;;;5094709;28;20027;-68
2022/05/31 04:06:56;;;;;;;14.23;8.60;;;7.60;99.90;;;;;;5076512;28;20028;-68
2022/05/31 04:09:21;;;;;;;16.27;8.95;;;7.70;99.90;;;;;;5094661;28;20064;-68
2022/05/31 04:11:47;;;;;;;17.08;8.77;;;7.70;99.90;;;;;;5094657;28;20030;-68
2022/05/31 04:14:12;;;;;;;12.48;7.72;;;7.80;99.90;;;;;;5094433;28;20024;-68
2022/05/31 04:16:37;;;;;;;14.63;8.73;;;7.90;99.90;;;;;;5094413;28;20028;-68
2022/05/31 04:19:04;;;;;;;16.75;8.88;;;7.90;99.90;;;;;;5094417;28;20505;-68
2022/05/31 04:21:29;;;;;;;16.17;7.75;;;8.00;99.90;;;;;;5093156;28;20107;-68
2022/05/31 04:23:58;;;;;;;13.95;8.70;;;8.00;99.90;;;;;;5093271;28;20199;-68
2022/05/31 04:26:27;;;;;;;13.55;7.45;;;8.10;99.90;;;;;;5094255;28;20032;-68
2022/05/31 04:28:52;;;;;;;14.18;7.78;;;8.20;99.90;;;;;;5092867;28;20513;-68
2022/05/31 04:31:18;;;;;;;14.00;7.97;;;8.20;99.90;;;;;;5076009;28;20020;-68
2022/05/31 04:33:44;;;;;;;13.02;7.75;;;8.30;99.90;;;;;;5094112;28;20363;-69
2022/05/31 04:36:12;;;;;;;14.60;7.25;;;8.40;99.90;;;;;;5092620;28;20050;-69
2022/05/31 04:38:39;;;;;;;12.73;7.75;;;8.50;99.90;;;;;;5094053;28;20016;-68
2022/05/31 04:41:05;;;;;;;12.20;7.38;;;8.50;99.90;;;;;;5094037;28;20028;-68
2022/05/31 04:43:32;;;;;;;12.15;7.43;;;8.60;99.90;;;;;;5093947;28;20055;-68
2022/05/31 04:46:08;;;;;;;10.32;6.80;;;8.70;99.90;;;;;;5094134;28;20445;-68
2022/05/31 04:48:34;;;;;;;13.85;7.78;;;8.80;99.90;;;;;;5093883;28;20094;-68
2022/05/31 04:50:59;;;;;;;13.77;7.00;;;8.80;99.90;;;;;;5093781;28;20470;-68
2022/05/31 04:53:25;;;;;;;11.57;7.00;;;8.80;99.90;;;;;;5092541;28;20110;-68
2022/05/31 04:55:50;;;;;;;11.23;6.70;;;8.90;99.90;;;;;;5093747;28;20032;-68
2022/05/31 04:58:15;;;;;;;12.35;7.05;;;9.00;99.90;;;;;;5093889;28;20047;-68
2022/05/31 05:00:47;;;;;;;9.85;6.65;;;9.10;99.90;;;;;;5093706;28;20020;-68
2022/05/31 05:03:13;;;;;;;10.27;6.93;;;9.20;99.90;;;;;;5093588;28;20393;-68
2022/05/31 05:05:38;;;;;;;12.80;6.50;;;9.20;99.90;;;;;;5092475;28;20028;-68
2022/05/31 05:08:04;;;;;;;14.82;6.95;;;9.30;99.90;;;;;;5092315;28;20137;-68
2022/05/31 05:10:30;;;;;;;10.90;6.97;;;9.30;99.90;;;;;;5092161;28;20032;-68
2022/05/31 05:12:55;;;;;;;11.38;6.72;;;9.30;99.90;;;;;;5093515;28;20371;-69
2022/05/31 05:15:21;;;;;;;13.05;6.97;;;9.30;99.90;;;;;;5092349;28;20107;-69
2022/05/31 05:17:46;;;;;;;12.00;6.80;;;9.40;99.90;;;;;;5093461;28;20020;-68
2022/05/31 05:20:12;;;;;;;11.15;7.00;;;9.50;99.90;;;;;;5093378;28;20044;-69
2022/05/31 05:22:37;;;;;;;12.82;6.35;;;9.40;99.90;;;;;;5093408;28;20031;-69
2022/05/31 05:25:03;;;;;;;11.57;6.75;;;9.50;99.90;;;;;;5093374;28;20035;-68
2022/05/31 05:27:28;;;;;;;10.85;6.60;;;9.60;99.90;;;;;;5092794;28;20403;-69
2022/05/31 05:32:39;;;;;;;10.65;7.45;;;9.80;99.90;;;;;;5096669;28;20056;-69
2022/05/31 05:35:05;;;;;;;9.55;6.22;;;9.80;99.90;;;;;;5092557;28;20070;-68
2022/05/31 05:37:31;;;;;;;10.05;6.72;;;9.90;99.90;;;;;;5092932;28;20044;-69
2022/05/31 05:39:56;;;;;;;13.95;6.35;;;10.00;99.90;;;;;;5098058;28;20563;-69
2022/05/31 05:42:22;;;;;;;12.25;6.75;;;10.00;99.90;;;;;;5093993;28;20020;-69
2022/05/31 05:44:47;;;;;;;11.13;6.95;;;10.00;99.90;;;;;;5094912;28;20466;-68
2022/05/31 05:47:14;;;;;;;10.00;6.32;;;10.00;99.90;;;;;;5099649;28;20024;-68
2022/05/31 05:49:40;;;;;;;9.05;7.18;;;10.10;99.90;;;;;;5102459;28;20506;-68
2022/05/31 05:52:09;;;;;;;14.18;7.35;;;10.10;99.90;;;;;;5105511;28;20024;-68
2022/05/31 05:54:35;;;;;;;13.18;7.05;;;10.10;99.90;;;;;;5095761;28;20024;-68
2022/05/31 05:57:01;;;;;;;8.80;7.10;;;10.10;99.90;;;;;;5107764;28;20024;-68
2022/05/31 05:59:26;;;;;;;10.55;6.95;;;10.20;99.90;;;;;;5093349;28;20028;-69
2022/05/31 06:01:58;;;;;;;11.13;6.65;;;10.30;99.90;;;;;;5095659;28;20119;-69
2022/05/31 06:04:33;;;;;;;15.55;7.65;;;10.30;99.90;;;;;;5090709;28;20130;-69
2022/05/31 06:07:22;;;;;;;12.35;7.55;;;10.40;99.90;;;;;;5095646;28;20028;-69
2022/05/31 06:10:01;;;;;;;13.57;7.45;;;10.40;99.90;;;;;;5093928;28;20023;-69
2022/05/31 06:12:33;;;;;;;14.63;7.00;;;10.50;99.90;;;;;;5092750;28;20089;-69
2022/05/31 06:15:03;;;;;;;13.02;6.85;;;10.60;99.90;;;;;;5090275;28;20028;-69
2022/05/31 06:17:35;;;;;;;10.05;6.18;;;10.80;99.90;;;;;;5093526;28;20021;-68
2022/05/31 06:20:05;;;;;;;10.77;6.57;;;10.90;99.90;;;;;;5092684;28;20028;-68
2022/05/31 06:22:31;;;;;;;9.70;5.90;;;11.10;99.90;;;;;;5096438;28;20016;-68
2022/05/31 06:24:58;;;;;;;10.55;6.38;;;11.10;99.90;;;;;;5109401;28;20543;-69
2022/05/31 06:27:24;;;;;;;10.50;5.95;;;11.30;99.90;;;;;;5112127;28;20024;-68
2022/05/31 06:29:49;;;;;;;10.73;5.97;;;11.40;99.90;;;;;;5080064;28;20094;-69
2022/05/31 06:32:16;;;;;;;10.20;6.60;;;11.50;99.90;;;;;;5103382;28;20485;-69
2022/05/31 06:34:42;;;;;;;14.13;6.15;;;11.70;99.90;;;;;;5103336;28;20074;-69
2022/05/31 06:37:11;;;;;;;12.85;6.18;;;11.60;99.90;;;;;;5089765;28;20023;-68
2022/05/31 06:39:38;;;;;;;10.50;5.78;;;11.60;99.90;;;;;;5094959;28;20585;-69
2022/05/31 06:42:05;;;;;;;9.90;6.38;;;11.70;99.90;;;;;;5095132;28;20419;-69
2022/05/31 06:44:35;;;;;;;10.25;6.30;;;11.70;99.90;;;;;;5097088;28;20478;-69
2022/05/31 06:47:01;;;;;;;12.18;6.65;;;11.60;99.90;;;;;;5092037;28;20063;-69
2022/05/31 06:49:29;;;;;;;14.38;6.68;;;11.60;99.90;;;;;;5094975;28;20052;-68
2022/05/31 06:57:31;;;;;;;10.60;6.30;;;11.70;99.90;;;;;;5095796;28;20065;-68
2022/05/31 06:59:57;;;;;;;11.88;6.80;;;11.80;99.90;;;;;;5095612;28;20055;-69
2022/05/31 07:02:22;;;;;;;9.98;5.50;;;12.00;99.90;;;;;;5075563;28;20143;-69
2022/05/31 07:04:48;;;;;;;8.48;5.72;;;12.30;99.90;;;;;;5098997;28;20028;-68
2022/05/31 07:07:14;;;;;;;9.30;5.70;;;12.40;99.90;;;;;;5086752;28;20015;-69
2022/05/31 07:09:40;;;;;;;9.73;5.82;;;12.90;99.90;;;;;;5098920;28;20397;-69
2022/05/31 07:12:06;;;;;;;11.95;5.57;;;12.90;99.90;;;;;;5104858;28;20016;-69
2022/05/31 07:14:31;;;;;;;10.25;5.40;;;13.10;99.90;;;;;;5077604;28;20575;-69
2022/05/31 07:16:57;;;;;;;9.60;4.95;;;13.20;99.90;;;;;;5102831;28;20025;-69
2022/05/31 07:19:22;;;;;;;7.57;4.95;;;13.20;99.90;;;;;;5095161;28;20028;-69
2022/05/31 07:21:48;;;;;;;9.45;5.78;;;13.30;99.90;;;;;;5090085;28;20028;-70
2022/05/31 07:24:14;;;;;;;6.00;5.18;;;13.40;99.90;;;;;;5093556;28;20111;-69
2022/05/31 07:26:39;;;;;;;11.10;6.05;;;13.40;99.90;;;;;;5086679;28;20032;-69
2022/05/31 07:29:06;;;;;;;7.90;5.28;;;13.30;99.90;;;;;;5094240;28;20050;-69
2022/05/31 07:31:31;;;;;;;8.13;5.80;;;13.40;99.90;;;;;;5093775;28;20059;-70
2022/05/31 07:33:58;;;;;;;8.00;5.30;;;13.50;99.90;;;;;;5089453;28;20081;-70
2022/05/31 07:36:24;;;;;;;10.35;5.47;;;13.70;99.90;;;;;;5088135;28;20131;-69
2022/05/31 07:38:50;;;;;;;9.68;5.13;;;13.60;99.90;;;;;;5094580;28;20036;-69
2022/05/31 07:41:16;;;;;;;6.47;5.03;;;13.60;99.90;;;;;;5114014;28;20020;-69
2022/05/31 07:43:42;;;;;;;12.25;5.70;;;13.60;99.90;;;;;;5100277;28;20394;-70
2022/05/31 07:46:10;;;;;;;5.85;4.93;;;13.40;99.90;;;;;;5076381;28;20027;-69
2022/05/31 07:48:37;;;;;;;10.05;5.38;;;13.40;99.90;;;;;;5092683;28;20032;-69
2022/05/31 07:51:04;;;;;;;9.98;6.05;;;13.20;99.90;;;;;;5091413;28;20020;-70
2022/05/31 07:53:30;;;;;;;9.40;6.47;;;13.10;99.90;;;;;;5094920;28;20062;-69
2022/05/31 07:55:58;;;;;;;12.38;6.55;;;13.00;99.90;;;;;;5100936;28;20539;-69
2022/05/31 07:58:30;;;;;;;13.15;6.38;;;12.90;99.90;;;;;;5104987;28;20045;-68
2022/05/31 08:00:56;;;;;;;10.45;5.68;;;13.00;99.90;;;;;;5105830;28;20382;-69
2022/05/31 08:03:22;;;;;;;10.35;6.18;;;13.00;99.90;;;;;;5102729;28;20027;-69
2022/05/31 08:05:48;;;;;;;9.95;6.22;;;13.00;99.90;;;;;;5098855;28;20174;-69
2022/05/31 08:08:13;;;;;;;13.38;6.07;;;13.00;99.90;;;;;;5061426;28;20490;-69
2022/05/31 08:10:39;;;;;;;10.45;6.00;;;12.90;99.90;;;;;;5092190;28;20044;-69
2022/05/31 08:13:05;;;;;;;12.20;7.03;;;12.90;99.90;;;;;;5095188;28;20165;-69
2022/05/31 08:15:30;;;;;;;7.78;6.07;;;12.80;99.90;;;;;;5096645;28;20103;-69
2022/05/31 08:17:56;;;;;;;9.80;6.45;;;12.70;99.90;;;;;;5101193;28;20028;-69
2022/05/31 08:20:21;;;;;;;14.35;6.10;;;12.60;99.90;;;;;;5101201;28;20034;-68
2022/05/31 08:22:48;;;;;;;11.82;6.47;;;12.60;99.90;;;;;;5092989;28;20016;-69
2022/05/31 08:25:13;;;;;;;9.43;6.63;;;12.40;99.90;;;;;;5093741;28;20024;-69
2022/05/31 08:27:39;;;;;;;12.25;6.40;;;12.30;99.90;;;;;;5094498;28;20093;-68
2022/05/31 08:30:06;;;;;;;11.55;6.43;;;12.30;99.90;;;;;;5092578;28;20031;-68
2022/05/31 08:32:33;;;;;;;12.35;7.03;;;12.20;99.90;;;;;;5093931;28;20028;-69
2022/05/31 08:34:58;;;;;;;8.60;6.32;;;12.10;99.90;;;;;;5092533;28;20083;-68
2022/05/31 08:37:24;;;;;;;10.00;6.80;;;12.20;99.90;;;;;;5094093;28;20020;-68
2022/05/31 08:39:50;;;;;;;9.55;6.57;;;12.20;99.90;;;;;;5093462;28;20070;-69
2022/05/31 08:42:21;;;;;;;12.10;7.03;;;12.10;99.90;;;;;;5093614;28;20016;-69
2022/05/31 08:45:00;;;;;;;13.63;7.65;;;12.20;99.90;;;;;;5093626;28;20072;-68
2022/05/31 08:47:45;;;;;;;15.20;7.60;;;12.10;99.90;;;;;;5104930;28;20012;-69
2022/05/31 08:53:17;;;;;;;14.18;7.80;;;12.10;99.90;;;;;;5088085;28;20040;-69
2022/05/31 08:58:55;;;;;;;15.07;8.02;;;12.20;99.90;;;;;;5083163;28;20028;-69
2022/05/31 09:01:24;;;;;;;11.00;8.43;;;12.20;99.90;;;;;;5075196;28;20019;-68
2022/05/31 09:03:56;;;;;;;16.33;9.50;;;12.20;99.90;;;;;;5092275;28;20031;-69
2022/05/31 09:06:28;;;;;;;10.73;8.43;;;12.10;99.90;;;;;;5092819;28;20028;-69
2022/05/31 09:09:03;;;;;;;14.52;8.63;;;12.20;99.90;;;;;;5090645;28;20028;-69
2022/05/31 09:11:38;;;;;;;15.57;8.65;;;12.20;99.90;;;;;;5093209;28;20028;-69
2022/05/31 09:14:15;;;;;;;15.48;8.65;;;12.20;99.90;;;;;;5086630;28;20065;-69
2022/05/31 09:16:50;;;;;;;12.02;8.55;;;12.10;99.90;;;;;;5100724;28;20158;-69
2022/05/31 09:19:23;;;;;;;13.98;9.48;;;12.10;99.90;;;;;;5092884;28;20103;-69
2022/05/31 09:21:51;;;;;;;20.48;10.73;;;12.20;99.90;;;;;;5076659;28;20082;-68
2022/05/31 09:24:19;;;;;;;11.35;8.38;;;12.30;99.90;;;;;;5076445;28;20028;-69
2022/05/31 09:27:09;;;;;;;12.90;8.32;;;12.50;99.90;;;;;;5080380;28;20031;-70
2022/05/31 09:30:07;;;;;;;13.63;8.38;;;12.70;99.90;;;;;;5079448;28;20509;-68
2022/05/31 09:33:07;;;;;;;13.50;7.70;;;12.80;99.90;;;;;;5093080;28;20474;-69
2022/05/31 09:35:59;;;;;;;12.48;7.32;;;12.90;99.90;;;;;;5092594;28;20051;-69
2022/05/31 09:39:05;;;;;;;17.20;10.10;;;12.80;99.90;;;;;;5092818;28;20390;-68
2022/05/31 09:41:40;;;;;;;22.75;11.02;;;12.60;99.90;;;;;;5072757;28;20028;-69
2022/05/31 09:44:17;;;;;;;19.00;9.07;;;12.70;99.90;;;;;;5075023;28;20429;-69
2022/05/31 09:46:56;;;;;;;15.90;9.13;;;12.80;99.90;;;;;;5107425;28;20486;-69
2022/05/31 09:49:36;;;;;;;13.38;7.90;;;13.00;99.90;;;;;;5106463;28;20046;-69
2022/05/31 09:52:07;;;;;;;14.15;7.93;;;13.20;99.90;;;;;;5090726;28;20052;-69
2022/05/31 09:57:39;;;;;;;12.85;7.45;;;13.70;99.90;;;;;;5083942;28;20059;-69
2022/05/31 10:00:21;;;;;;;14.98;6.78;;;14.10;99.90;;;;;;5090728;28;20513;-69
2022/05/31 10:03:09;;;;;;;16.60;7.30;;;14.40;99.90;;;;;;5094682;28;20055;-69
2022/05/31 10:05:36;;;;;;;11.65;6.93;;;14.40;99.90;;;;;;5096541;28;20394;-69
2022/05/31 10:08:02;;;;;;;16.08;8.07;;;14.40;99.90;;;;;;5091744;28;20385;-69
2022/05/31 10:10:32;;;;;;;10.55;7.28;;;14.30;99.90;;;;;;5091936;28;20012;-69
2022/05/31 10:13:00;;;;;;;12.80;7.07;;;14.20;99.90;;;;;;5095650;28;20023;-69
2022/05/31 10:15:49;;;;;;;14.45;7.43;;;14.00;99.90;;;;;;5098973;28;20020;-69
2022/05/31 10:18:29;;;;;;;11.38;6.22;;;14.10;99.90;;;;;;5091577;28;20543;-69
2022/05/31 10:21:07;;;;;;;11.48;7.25;;;14.20;99.90;;;;;;5083901;28;20024;-69
2022/05/31 10:23:43;;;;;;;10.13;6.40;;;14.30;99.90;;;;;;5096387;28;20032;-69
2022/05/31 10:26:23;;;;;;;12.25;6.22;;;14.30;99.90;;;;;;5081143;28;20494;-69
2022/05/31 10:28:57;;;;;;;11.60;6.95;;;14.20;99.90;;;;;;5095912;28;20393;-69
2022/05/31 10:31:33;;;;;;;11.90;7.25;;;14.20;99.90;;;;;;5089691;28;20013;-69
2022/05/31 10:34:02;;;;;;;10.40;7.18;;;13.90;99.90;;;;;;5082910;28;20028;-69
2022/05/31 10:36:31;;;;;;;12.70;7.72;;;13.80;99.90;;;;;;5087411;28;20136;-69
2022/05/31 10:39:08;;;;;;;12.18;7.18;;;13.70;99.90;;;;;;5094143;28;20016;-69
2022/05/31 10:41:35;;;;;;;12.13;7.78;;;13.70;99.90;;;;;;5085696;28;20031;-69
2022/05/31 10:44:13;;;;;;;14.27;9.07;;;13.60;99.90;;;;;;5087077;28;20535;-69
2022/05/31 10:46:42;;;;;;;11.02;8.20;;;13.50;99.90;;;;;;5078924;28;20057;-69
2022/05/31 10:49:17;;;;;;;15.85;9.38;;;13.40;99.90;;;;;;5095283;28;20035;-69
2022/05/31 10:52:11;;;;;;;17.05;9.85;;;13.30;99.90;;;;;;5091767;28;20402;-68
2022/05/31 10:55:16;;;;;;;17.48;10.80;;;13.20;99.90;;;;;;5086370;28;20036;-68
2022/05/31 11:00:37;;;;;;;18.13;12.52;;;13.00;99.90;;;;;;5075089;27;20404;-68
2022/05/31 11:03:18;;;;;;;18.70;11.48;;;13.10;99.90;;;;;;5067219;28;20033;-69
2022/05/31 11:06:08;;;;;;;17.23;11.90;;;13.10;99.90;;;;;;5069584;28;20195;-69
2022/05/31 11:15:00;;;;;;;19.38;13.23;;;13.40;99.90;;;;;;5110959;27;20756;-69
2022/05/31 11:17:52;;;;;;;21.38;12.60;;;13.30;99.90;;;;;;5100016;28;20047;-68
2022/05/31 11:20:41;;;;;;;20.50;12.77;;;13.40;99.90;;;;;;5100102;28;20537;-68
2022/05/31 11:23:21;;;;;;;17.73;11.55;;;13.30;99.90;;;;;;5109815;28;20077;-68
2022/05/31 11:25:58;;;;;;;19.35;12.55;;;13.20;99.90;;;;;;5107108;28;20032;-69
2022/05/31 11:28:51;;;;;;;16.73;11.43;;;13.30;99.90;;;;;;5106665;28;20031;-69
2022/05/31 11:31:28;;;;;;;21.02;11.77;;;13.50;99.90;;;;;;5093771;28;20034;-69
2022/05/31 11:34:24;;;;;;;20.05;11.75;;;13.60;99.90;;;;;;5109454;28;20039;-69
2022/05/31 11:37:22;;;;;;;15.80;10.10;;;14.00;99.90;;;;;;5096986;28;20020;-70
2022/05/31 11:40:15;;;;;;;12.93;8.88;;;14.30;99.90;;;;;;5109652;28;20021;-69
2022/05/31 11:42:54;;;;;;;12.45;8.98;;;14.50;99.90;;;;;;5098175;28;20054;-69
2022/05/31 11:45:52;;;;;;;12.45;8.48;;;14.90;99.90;;;;;;5106047;28;20036;-68
2022/05/31 11:48:26;;;;;;;10.82;7.70;;;15.40;99.90;;;;;;5097357;28;20020;-69
2022/05/31 11:51:18;;;;;;;10.10;6.13;;;16.20;99.90;;;;;;5104432;28;20544;-69
2022/05/31 11:54:24;;;;;;;10.20;6.68;;;16.40;99.90;;;;;;5099150;28;20037;-69
2022/05/31 11:57:20;;;;;;;6.25;5.20;;;16.30;99.90;;;;;;5097333;28;20028;-69
2022/05/31 11:59:58;;;;;;;7.30;4.68;;;16.70;99.90;;;;;;5108610;28;20474;-69
2022/05/31 12:02:56;;;;;;;7.00;5.05;;;16.70;99.90;;;;;;5116780;27;20414;-70
2022/05/31 12:05:29;;;;;;;8.10;4.60;;;16.60;99.90;;;;;;5096546;28;20031;-69
2022/05/31 12:08:27;;;;;;;4.97;4.43;;;16.80;99.90;;;;;;5119756;27;20465;-69
2022/05/31 12:10:56;;;;;;;6.47;4.90;;;17.30;99.90;;;;;;5086482;28;20024;-70
2022/05/31 12:13:24;;;;;;;5.63;4.50;;;17.40;99.90;;;;;;5093447;28;20494;-70
2022/05/31 12:15:52;;;;;;;6.53;4.10;;;17.60;99.90;;;;;;5116145;28;20024;-70
2022/05/31 12:18:37;;;;;;;6.07;3.88;;;17.40;99.90;;;;;;5121049;28;20026;-70
2022/05/31 12:21:15;;;;;;;5.28;4.25;;;17.70;99.90;;;;;;5111844;28;20035;-70
2022/05/31 12:24:18;;;;;;;7.43;3.85;;;17.90;99.90;;;;;;5100531;27;20473;-70
2022/05/31 12:26:57;;;;;;;6.20;3.80;;;18.10;99.90;;;;;;5108612;28;20066;-70
2022/05/31 12:29:30;;;;;;;7.65;3.85;;;18.10;99.90;;;;;;5079246;28;20024;-70
2022/05/31 12:32:24;;;;;;;7.20;3.67;;;18.10;99.90;;;;;;5087090;28;20032;-70
2022/05/31 12:34:50;;;;;;;5.45;3.65;;;18.10;99.90;;;;;;5095987;28;20024;-70
2022/05/31 12:37:16;;;;;;;5.80;3.80;;;18.00;99.90;;;;;;5096975;28;20035;-70
2022/05/31 12:39:44;;;;;;;4.72;3.63;;;17.60;99.90;;;;;;5085804;28;20032;-70
2022/05/31 12:42:32;;;;;;;4.50;4.00;;;17.80;99.90;;;;;;5101568;28;20038;-71
2022/05/31 12:45:35;;;;;;;7.15;4.32;;;18.00;99.90;;;;;;5090598;28;20023;-70
2022/05/31 12:48:12;;;;;;;7.30;3.95;;;18.00;99.90;;;;;;5097047;28;20026;-70
2022/05/31 12:51:00;;;;;;;6.90;4.35;;;18.10;99.90;;;;;;5095205;28;20028;-70
2022/05/31 12:56:38;;;;;;;5.57;3.92;;;18.00;99.90;;;;;;5125364;27;20398;-69
2022/05/31 12:59:06;;;;;;;6.15;4.00;;;17.90;99.90;;;;;;5112630;27;20073;-69
2022/05/31 13:01:35;;;;;;;7.07;4.53;;;18.00;99.90;;;;;;5110456;28;20016;-69
2022/05/31 13:04:17;;;;;;;7.05;3.92;;;18.00;99.90;;;;;;5096022;28;20394;-69
2022/05/31 13:07:07;;;;;;;5.20;3.83;;;17.80;99.90;;;;;;5100409;28;20114;-69
2022/05/31 13:09:36;;;;;;;6.47;3.60;;;17.90;99.90;;;;;;5112964;28;20027;-70
2022/05/31 13:20:31;;;;;;;5.53;4.18;;;18.50;99.90;;;;;;5115898;27;20176;-71
2022/05/31 13:23:04;;;;;;;7.33;3.93;;;18.80;98.10;;;;;;5114743;28;20102;-71
2022/05/31 13:25:41;;;;;;;5.23;3.93;;;19.10;99.90;;;;;;5109909;28;20116;-71
2022/05/31 13:28:07;;;;;;;5.30;3.60;;;19.30;97.40;;;;;;5105050;28;20282;-70
2022/05/31 13:30:41;;;;;;;7.57;4.00;;;19.30;97.90;;;;;;5110429;28;20505;-71
2022/05/31 13:33:14;;;;;;;7.13;4.28;;;19.30;99.30;;;;;;5113716;28;20125;-71
2022/05/31 13:35:39;;;;;;;7.80;5.10;;;19.10;98.40;;;;;;5116580;28;20028;-71
2022/05/31 13:38:12;;;;;;;5.90;4.32;;;18.90;96.50;;;;;;5105551;28;20113;-71
2022/05/31 13:40:47;;;;;;;5.97;4.82;;;19.00;99.00;;;;;;5106441;28;20027;-71
2022/05/31 13:43:24;;;;;;;6.32;4.97;;;19.10;98.20;;;;;;5109163;28;20028;-71